Gore Bay Manitoulin Airport


Codes: CYZE/YZE
Name: Gore Bay Manitoulin Airport
City: Gore Bay
Country: Canada
Elevation: 635 ft.
Wikipedia:

Photos at Gore Bay Manitoulin Airport


   Photos courtesy of SpottingLog. You can add your own sightings and photos by signing up for a free trial today.



No photos found.

Weather at Gore Bay Manitoulin Airport


Time (UTC)DescriptionTempratureWindCloud coverageVisibilityPressureHumidity
23-May-2024 21:00Few Clouds17°C13 mph, W17%10000m1009hPa60%
24-May-2024 00:00Broken Clouds13°C16 mph, NW51%10000m1010hPa65%
24-May-2024 03:00Clear Sky9°C16 mph, NW4%10000m1011hPa68%
24-May-2024 06:00Scattered Clouds8°C11 mph, W37%10000m1012hPa72%
24-May-2024 09:00Overcast Clouds7°C13 mph, W98%10000m1012hPa79%
24-May-2024 12:00Broken Clouds7°C9 mph, NW68%10000m1014hPa76%
24-May-2024 15:00Clear Sky9°C7 mph, W1%10000m1014hPa71%
24-May-2024 18:00Few Clouds12°C7 mph, W21%10000m1013hPa59%
24-May-2024 21:00Broken Clouds13°C4 mph, W59%10000m1012hPa61%
25-May-2024 00:00Broken Clouds11°C4 mph, SE71%10000m1011hPa69%
25-May-2024 03:00Broken Clouds9°C7 mph, SE73%10000m1012hPa75%
25-May-2024 06:00Broken Clouds9°C16 mph, E84%10000m1010hPa76%
25-May-2024 09:00Light Rain9°C13 mph, E100%10000m1008hPa86%
25-May-2024 12:00Overcast Clouds10°C11 mph, E100%10000m1007hPa90%
25-May-2024 15:00Light Rain10°C9 mph, SE100%10000m1006hPa95%
25-May-2024 18:00Light Rain10°C4 mph, SW100%10000m1007hPa95%
25-May-2024 21:00Overcast Clouds10°C16 mph, NW100%8889m1009hPa91%
26-May-2024 00:00Overcast Clouds10°C13 mph, W93%10000m1011hPa82%
26-May-2024 03:00Overcast Clouds9°C11 mph, NW98%10000m1013hPa78%
26-May-2024 06:00Broken Clouds7°C7 mph, NW76%10000m1014hPa88%
26-May-2024 09:00Broken Clouds7°C2 mph, NE66%10000m1015hPa91%
26-May-2024 12:00Broken Clouds9°C4 mph, NE67%10000m1015hPa84%
26-May-2024 15:00Overcast Clouds11°C2 mph, E100%10000m1014hPa73%
26-May-2024 18:00Overcast Clouds11°C4 mph, E100%7595m1013hPa78%
26-May-2024 21:00Overcast Clouds12°C4 mph, SE100%10000m1010hPa76%
27-May-2024 00:00Overcast Clouds14°C13 mph, E100%10000m1007hPa71%
27-May-2024 03:00Overcast Clouds13°C13 mph, E100%10000m1005hPa68%
27-May-2024 06:00Overcast Clouds13°C16 mph, E100%10000m1001hPa74%
27-May-2024 09:00Moderate Rain11°C18 mph, E100%3550m998hPa97%
27-May-2024 12:00Moderate Rain12°C18 mph, E100%1839m996hPa98%
27-May-2024 15:00Moderate Rain11°C9 mph, N100%0m995hPa99%
27-May-2024 18:00Light Rain11°C13 mph, S100%10000m997hPa88%
27-May-2024 21:00Light Rain11°C11 mph, S100%10000m996hPa86%
28-May-2024 00:00Overcast Clouds10°C11 mph, S100%10000m996hPa90%
28-May-2024 03:00Light Rain9°C4 mph, S100%10000m996hPa96%
28-May-2024 06:00Overcast Clouds9°C4 mph, W100%10000m996hPa97%
28-May-2024 09:00Light Rain9°C13 mph, W100%10000m997hPa98%
28-May-2024 12:00Light Rain10°C25 mph, W100%10000m1000hPa96%
28-May-2024 15:00Overcast Clouds11°C20 mph, W100%10000m1003hPa88%
28-May-2024 18:00Overcast Clouds13°C20 mph, W93%10000m1004hPa70%